Time;durP1;ratioP1;P1;durP2;ratioP2;P2;SDS_P1;SDS_P2;PMS_P1;PMS_P2;Temp;Humidity;BMP_temperature;BMP_pressure;BME280_temperature;BME280_humidity;BME280_pressure;Samples;Min_cycle;Max_cycle;Signal;HPM_P1;HPM_P2
2022/09/30 00:04:40;;;;;;;5.53;1.65;;;;;;;;;;10470889;28;20040;-78
2022/09/30 00:09:43;;;;;;;1.80;1.08;;;;;;;;;;10487478;28;20059;-79
2022/09/30 00:14:47;;;;;;;2.13;1.20;;;;;;;;;;10502117;28;20386;-79
2022/09/30 00:19:51;;;;;;;1.92;1.20;;;;;;;;;;10456722;28;20636;-79
2022/09/30 00:24:55;;;;;;;1.58;1.15;;;;;;;;;;10517630;28;20049;-79
2022/09/30 00:29:58;;;;;;;2.80;1.40;;;;;;;;;;10480953;28;20045;-78
2022/09/30 00:35:03;;;;;;;3.13;1.38;;;;;;;;;;10495482;28;20041;-78
2022/09/30 00:40:09;;;;;;;1.05;0.95;;;;;;;;;;10502774;28;20047;-79
2022/09/30 00:45:13;;;;;;;1.10;1.00;;;;;;;;;;10498830;28;20169;-79
2022/09/30 00:50:36;;;;;;;1.35;1.13;;;;;;;;;;10500397;28;20051;-79
2022/09/30 00:55:46;;;;;;;2.17;1.38;;;;;;;;;;10463642;28;20504;-79
2022/09/30 01:00:51;;;;;;;1.08;0.90;;;;;;;;;;10466650;28;20049;-78
2022/09/30 01:05:56;;;;;;;2.72;1.20;;;;;;;;;;10484383;28;20127;-79
2022/09/30 01:10:59;;;;;;;1.33;0.90;;;;;;;;;;10501713;28;20056;-79
2022/09/30 01:16:36;;;;;;;1.55;0.70;;;;;;;;;;10483604;28;20056;-79
2022/09/30 01:22:06;;;;;;;1.35;0.80;;;;;;;;;;10480167;28;20135;-79
2022/09/30 01:27:28;;;;;;;0.70;0.65;;;;;;;;;;10469052;28;20572;-79
2022/09/30 01:33:02;;;;;;;1.00;0.80;;;;;;;;;;10485696;28;20094;-79
2022/09/30 01:38:13;;;;;;;1.45;0.70;;;;;;;;;;10470421;28;20036;-79
2022/09/30 01:43:28;;;;;;;1.35;0.90;;;;;;;;;;10499323;28;20040;-79
2022/09/30 01:48:39;;;;;;;1.33;0.85;;;;;;;;;;10526521;28;20050;-79
2022/09/30 01:53:48;;;;;;;2.05;0.60;;;;;;;;;;10527666;28;20531;-79
2022/09/30 01:58:56;;;;;;;4.30;1.02;;;;;;;;;;10508388;28;20066;-79
2022/09/30 02:04:05;;;;;;;0.60;0.60;;;;;;;;;;10503309;28;20040;-79
2022/09/30 02:09:13;;;;;;;0.80;0.80;;;;;;;;;;10525663;28;20055;-79
2022/09/30 02:14:20;;;;;;;0.90;0.80;;;;;;;;;;10520799;28;20043;-79
2022/09/30 02:19:33;;;;;;;1.00;0.60;;;;;;;;;;10527514;28;20055;-79
2022/09/30 02:24:37;;;;;;;1.15;0.93;;;;;;;;;;10526982;28;20048;-79
2022/09/30 02:29:48;;;;;;;4.47;0.65;;;;;;;;;;10509114;28;20078;-79
2022/09/30 02:34:56;;;;;;;0.95;0.80;;;;;;;;;;10507755;28;20083;-79
2022/09/30 02:40:04;;;;;;;1.23;0.90;;;;;;;;;;10525944;28;20048;-79
2022/09/30 02:45:11;;;;;;;1.15;0.80;;;;;;;;;;10501140;28;20066;-79
2022/09/30 02:50:20;;;;;;;1.85;1.00;;;;;;;;;;10496285;28;20040;-78
2022/09/30 02:55:31;;;;;;;1.00;0.90;;;;;;;;;;10522180;28;20050;-78
2022/09/30 03:00:35;;;;;;;0.98;0.88;;;;;;;;;;10499526;28;20044;-77
2022/09/30 03:05:39;;;;;;;0.75;0.70;;;;;;;;;;10475749;28;20109;-79
2022/09/30 03:10:43;;;;;;;1.15;0.95;;;;;;;;;;10518544;28;20074;-78
2022/09/30 03:16:01;;;;;;;1.75;1.02;;;;;;;;;;10512791;28;20386;-78
2022/09/30 03:21:21;;;;;;;1.35;1.00;;;;;;;;;;10491099;28;20048;-78
2022/09/30 03:26:35;;;;;;;0.93;0.80;;;;;;;;;;10486152;28;20043;-77
2022/09/30 03:31:47;;;;;;;1.23;1.08;;;;;;;;;;10504641;28;20504;-77
2022/09/30 03:37:01;;;;;;;1.20;1.00;;;;;;;;;;10476907;28;20045;-79
2022/09/30 03:42:10;;;;;;;0.85;0.85;;;;;;;;;;10499645;28;20063;-78
2022/09/30 03:47:17;;;;;;;1.35;0.93;;;;;;;;;;10472524;28;20094;-78
2022/09/30 03:52:22;;;;;;;1.58;1.13;;;;;;;;;;10484311;28;20043;-80
2022/09/30 03:57:27;;;;;;;1.15;0.90;;;;;;;;;;10510987;28;20427;-78
2022/09/30 04:02:31;;;;;;;1.73;1.13;;;;;;;;;;10487239;28;20040;-79
2022/09/30 04:07:35;;;;;;;1.52;1.20;;;;;;;;;;10447481;28;20145;-79
2022/09/30 04:12:39;;;;;;;2.75;1.25;;;;;;;;;;10456206;28;20417;-79
2022/09/30 04:17:42;;;;;;;1.70;1.30;;;;;;;;;;10455124;28;20059;-78
2022/09/30 04:22:47;;;;;;;1.25;1.15;;;;;;;;;;10511311;28;20680;-78
2022/09/30 04:27:50;;;;;;;1.25;1.15;;;;;;;;;;10490557;28;20052;-80
2022/09/30 04:32:53;;;;;;;1.02;0.82;;;;;;;;;;10472151;28;20048;-79
2022/09/30 04:37:58;;;;;;;2.13;1.20;;;;;;;;;;10459501;28;20266;-78
2022/09/30 04:43:01;;;;;;;1.00;0.90;;;;;;;;;;10492453;28;20040;-78
2022/09/30 04:48:05;;;;;;;0.80;0.80;;;;;;;;;;10518285;28;20055;-78
2022/09/30 04:53:13;;;;;;;1.40;1.05;;;;;;;;;;10461184;28;20048;-78
2022/09/30 04:58:16;;;;;;;3.92;1.20;;;;;;;;;;10469828;28;20050;-78
2022/09/30 05:03:20;;;;;;;1.67;1.13;;;;;;;;;;10510294;28;20090;-79
2022/09/30 05:08:25;;;;;;;1.85;1.35;;;;;;;;;;10524975;28;20043;-79
2022/09/30 05:13:32;;;;;;;1.60;1.10;;;;;;;;;;10499268;28;20047;-78
2022/09/30 05:18:36;;;;;;;1.85;1.40;;;;;;;;;;10505269;28;20044;-77
2022/09/30 05:23:41;;;;;;;1.63;1.48;;;;;;;;;;10460213;28;20417;-77
2022/09/30 05:28:44;;;;;;;3.55;1.40;;;;;;;;;;10509738;28;20054;-79
2022/09/30 05:33:47;;;;;;;2.42;1.42;;;;;;;;;;10496494;28;20045;-79
2022/09/30 05:38:52;;;;;;;3.05;1.60;;;;;;;;;;10492401;28;20528;-79
2022/09/30 05:43:59;;;;;;;1.67;1.40;;;;;;;;;;10505091;28;20036;-79
2022/09/30 05:49:03;;;;;;;1.73;1.15;;;;;;;;;;10487104;28;20051;-78
2022/09/30 05:54:09;;;;;;;1.90;1.70;;;;;;;;;;10494534;28;20123;-78
2022/09/30 05:59:13;;;;;;;2.30;2.10;;;;;;;;;;10502201;28;20062;-79
2022/09/30 06:04:16;;;;;;;2.53;2.05;;;;;;;;;;10485745;28;20083;-77
2022/09/30 06:09:21;;;;;;;4.50;2.33;;;;;;;;;;10471148;28;20041;-79
2022/09/30 06:14:25;;;;;;;7.63;6.30;;;;;;;;;;10482645;28;20032;-80
2022/09/30 06:19:29;;;;;;;5.55;4.55;;;;;;;;;;10465352;28;20501;-79
2022/09/30 06:24:33;;;;;;;8.20;3.13;;;;;;;;;;10509264;28;20047;-79
2022/09/30 06:29:37;;;;;;;7.97;4.35;;;;;;;;;;10517569;28;20131;-78
2022/09/30 06:34:43;;;;;;;6.45;3.65;;;;;;;;;;10518678;28;20068;-79
2022/09/30 06:39:49;;;;;;;2.80;2.20;;;;;;;;;;10507361;28;20052;-80
2022/09/30 06:44:52;;;;;;;2.28;1.63;;;;;;;;;;10516391;28;20068;-78
2022/09/30 06:49:57;;;;;;;1.45;1.30;;;;;;;;;;10492875;28;20049;-77
2022/09/30 06:55:02;;;;;;;1.33;1.23;;;;;;;;;;10510066;28;20137;-79
2022/09/30 07:00:07;;;;;;;1.73;1.30;;;;;;;;;;10523682;28;20093;-78
2022/09/30 07:05:10;;;;;;;1.83;1.52;;;;;;;;;;10497246;28;20494;-79
2022/09/30 07:10:15;;;;;;;1.30;1.00;;;;;;;;;;10521503;28;20654;-79
2022/09/30 07:15:22;;;;;;;1.48;1.30;;;;;;;;;;10498172;28;20405;-79
2022/09/30 07:20:26;;;;;;;1.92;1.17;;;;;;;;;;10489463;28;20050;-79
2022/09/30 07:25:30;;;;;;;2.85;1.20;;;;;;;;;;10514633;28;20036;-80
2022/09/30 07:30:34;;;;;;;1.33;1.15;;;;;;;;;;10501441;28;20532;-79
2022/09/30 07:35:37;;;;;;;1.55;1.40;;;;;;;;;;10502238;28;20468;-79
2022/09/30 07:40:42;;;;;;;2.75;1.52;;;;;;;;;;10469565;28;20065;-79
2022/09/30 07:45:46;;;;;;;1.73;1.10;;;;;;;;;;10475682;28;20583;-78
2022/09/30 07:50:54;;;;;;;3.97;1.80;;;;;;;;;;10480650;28;20063;-80
2022/09/30 07:56:03;;;;;;;3.13;2.17;;;;;;;;;;10458518;28;20044;-80
2022/09/30 08:01:07;;;;;;;4.45;2.25;;;;;;;;;;10481456;28;20408;-79
2022/09/30 08:06:12;;;;;;;3.42;2.30;;;;;;;;;;10479684;28;20063;-80
2022/09/30 08:11:17;;;;;;;3.33;2.40;;;;;;;;;;10476709;28;20646;-80
2022/09/30 08:16:21;;;;;;;5.28;2.70;;;;;;;;;;10508405;28;20492;-80
2022/09/30 08:21:25;;;;;;;3.25;2.85;;;;;;;;;;10487316;28;20033;-80
2022/09/30 08:26:30;;;;;;;2.78;1.98;;;;;;;;;;10514451;28;20389;-79
2022/09/30 08:31:33;;;;;;;2.00;1.45;;;;;;;;;;10484057;28;20574;-79
2022/09/30 08:36:37;;;;;;;1.80;1.60;;;;;;;;;;10484576;28;20575;-78
2022/09/30 08:41:55;;;;;;;2.83;2.13;;;;;;;;;;10499739;28;20093;-79
2022/09/30 08:47:08;;;;;;;3.92;1.80;;;;;;;;;;10467098;28;20050;-79
2022/09/30 08:52:17;;;;;;;3.67;2.20;;;;;;;;;;10485097;28;20099;-78
2022/09/30 08:57:24;;;;;;;3.00;1.50;;;;;;;;;;10478676;28;20047;-81
2022/09/30 09:02:31;;;;;;;1.58;1.20;;;;;;;;;;10485927;28;20516;-78
2022/09/30 09:07:43;;;;;;;3.22;1.85;;;;;;;;;;10499103;28;20136;-79
2022/09/30 09:12:55;;;;;;;3.05;1.30;;;;;;;;;;10488224;28;20047;-79
2022/09/30 09:18:17;;;;;;;2.83;1.30;;;;;;;;;;10510450;28;20140;-79
2022/09/30 09:23:27;;;;;;;1.83;1.35;;;;;;;;;;10510554;28;20200;-79
2022/09/30 09:28:35;;;;;;;2.10;1.40;;;;;;;;;;10498601;28;20689;-79
2022/09/30 09:33:40;;;;;;;2.95;1.08;;;;;;;;;;10489330;28;20522;-78
2022/09/30 09:39:01;;;;;;;1.70;1.17;;;;;;;;;;10509537;28;20052;-78
2022/09/30 09:44:11;;;;;;;1.30;0.95;;;;;;;;;;10508363;28;20040;-78
2022/09/30 09:49:33;;;;;;;2.20;1.02;;;;;;;;;;10488291;28;20051;-78
2022/09/30 09:54:41;;;;;;;2.10;1.35;;;;;;;;;;10492099;28;20060;-79
2022/09/30 09:59:57;;;;;;;2.88;1.60;;;;;;;;;;10496800;28;20512;-79
2022/09/30 10:05:25;;;;;;;1.50;1.13;;;;;;;;;;10488701;28;20393;-79
2022/09/30 10:10:29;;;;;;;1.65;1.13;;;;;;;;;;10511622;28;20032;-78
2022/09/30 10:15:36;;;;;;;2.55;1.30;;;;;;;;;;10513928;28;20052;-78
2022/09/30 10:20:39;;;;;;;2.45;1.45;;;;;;;;;;10506112;28;20408;-78
2022/09/30 10:25:59;;;;;;;2.40;1.10;;;;;;;;;;10485473;28;20048;-78
2022/09/30 10:31:06;;;;;;;1.60;0.70;;;;;;;;;;10495201;28;20043;-78
2022/09/30 10:36:14;;;;;;;2.50;1.27;;;;;;;;;;10487527;28;20052;-75
2022/09/30 10:41:23;;;;;;;2.35;1.20;;;;;;;;;;10467037;28;20059;-78
2022/09/30 10:46:31;;;;;;;0.95;0.85;;;;;;;;;;10477784;28;20052;-77
2022/09/30 10:51:35;;;;;;;1.10;1.00;;;;;;;;;;10473222;28;20406;-75
2022/09/30 10:56:44;;;;;;;1.17;0.90;;;;;;;;;;10455448;28;20047;-77
2022/09/30 11:01:54;;;;;;;0.93;0.47;;;;;;;;;;10463367;28;20721;-78
2022/09/30 11:07:04;;;;;;;1.05;0.52;;;;;;;;;;10479789;28;20527;-77
2022/09/30 11:12:17;;;;;;;2.47;1.42;;;;;;;;;;10459132;28;20071;-78
2022/09/30 11:17:32;;;;;;;1.92;1.13;;;;;;;;;;10470244;28;20075;-78
2022/09/30 11:22:43;;;;;;;2.15;1.33;;;;;;;;;;10475256;28;20432;-78
2022/09/30 11:28:01;;;;;;;2.17;1.10;;;;;;;;;;10445758;28;20043;-78
2022/09/30 11:33:22;;;;;;;2.78;1.00;;;;;;;;;;10478790;28;20036;-78
2022/09/30 11:38:49;;;;;;;2.80;1.42;;;;;;;;;;10463042;28;20041;-77
2022/09/30 11:44:01;;;;;;;0.95;0.60;;;;;;;;;;10479639;28;20045;-78
2022/09/30 11:49:25;;;;;;;2.63;0.95;;;;;;;;;;10473537;28;20037;-77
2022/09/30 11:54:41;;;;;;;2.28;0.90;;;;;;;;;;10456394;28;20578;-76
2022/09/30 11:59:46;;;;;;;;;;;;;;;;;;10477020;28;20537;-77
2022/09/30 12:04:55;;;;;;;1.07;0.80;;;;;;;;;;10474347;28;19920;-77
2022/09/30 12:10:01;;;;;;;1.02;0.80;;;;;;;;;;10479306;28;20247;-77
2022/09/30 12:15:06;;;;;;;1.90;0.77;;;;;;;;;;10474803;28;20045;-76
2022/09/30 12:20:19;;;;;;;1.77;0.60;;;;;;;;;;10470425;28;20029;-78
2022/09/30 12:25:26;;;;;;;3.85;0.85;;;;;;;;;;10465872;28;20040;-78
2022/09/30 12:30:30;;;;;;;0.95;0.60;;;;;;;;;;10448457;28;20041;-78
2022/09/30 12:35:58;;;;;;;1.42;0.90;;;;;;;;;;10494579;28;20398;-77
2022/09/30 12:41:15;;;;;;;1.13;0.63;;;;;;;;;;10491955;28;20052;-78
2022/09/30 12:46:26;;;;;;;0.75;0.52;;;;;;;;;;10485439;28;20074;-78
2022/09/30 12:51:33;;;;;;;0.68;0.40;;;;;;;;;;10515053;28;20420;-77
2022/09/30 12:56:37;;;;;;;1.25;0.63;;;;;;;;;;10509642;28;20047;-77
2022/09/30 13:01:42;;;;;;;1.60;0.50;;;;;;;;;;10498833;28;20051;-77
2022/09/30 13:07:07;;;;;;;2.95;0.95;;;;;;;;;;10501556;28;20048;-77
2022/09/30 13:12:24;;;;;;;1.50;0.60;;;;;;;;;;10503616;28;20048;-77
2022/09/30 13:17:27;;;;;;;0.40;0.30;;;;;;;;;;10478436;28;20069;-77
2022/09/30 13:22:56;;;;;;;0.55;0.30;;;;;;;;;;10517531;28;20040;-77
2022/09/30 13:28:27;;;;;;;0.63;0.40;;;;;;;;;;10515637;28;20073;-77
2022/09/30 13:33:42;;;;;;;1.63;0.50;;;;;;;;;;10490551;28;20496;-77
2022/09/30 13:39:05;;;;;;;1.10;0.50;;;;;;;;;;10499522;28;20055;-77
2022/09/30 13:44:13;;;;;;;0.30;0.30;;;;;;;;;;10518056;28;20048;-77
2022/09/30 13:49:21;;;;;;;0.70;0.40;;;;;;;;;;10511561;28;20114;-77
2022/09/30 13:54:30;;;;;;;0.30;0.20;;;;;;;;;;10508499;28;20381;-77
2022/09/30 13:59:48;;;;;;;0.30;0.30;;;;;;;;;;10493691;28;20580;-77
2022/09/30 14:05:07;;;;;;;0.73;0.30;;;;;;;;;;10489934;28;20161;-77
2022/09/30 14:10:33;;;;;;;0.82;0.47;;;;;;;;;;10502376;28;20037;-77
2022/09/30 14:15:50;;;;;;;0.88;0.40;;;;;;;;;;10506277;28;20059;-77
2022/09/30 14:21:08;;;;;;;0.43;0.28;;;;;;;;;;10497315;28;20051;-77
2022/09/30 14:26:33;;;;;;;0.98;0.20;;;;;;;;;;10522673;28;20055;-77
2022/09/30 14:31:44;;;;;;;0.73;0.47;;;;;;;;;;10510251;28;20101;-77
2022/09/30 14:36:49;;;;;;;0.73;0.32;;;;;;;;;;10501034;28;20379;-77
2022/09/30 14:41:56;;;;;;;1.23;0.50;;;;;;;;;;10480904;28;20055;-77
2022/09/30 14:47:01;;;;;;;0.65;0.30;;;;;;;;;;10526711;28;20070;-76
2022/09/30 14:52:05;;;;;;;1.02;0.47;;;;;;;;;;10518737;28;20055;-76
2022/09/30 14:57:16;;;;;;;0.90;0.50;;;;;;;;;;10458425;28;20049;-78
2022/09/30 15:02:20;;;;;;;0.40;0.20;;;;;;;;;;10488669;28;20059;-77
2022/09/30 15:07:23;;;;;;;1.23;0.40;;;;;;;;;;10484462;28;20044;-76
2022/09/30 15:12:28;;;;;;;0.55;0.30;;;;;;;;;;10473356;28;20048;-76
2022/09/30 15:17:37;;;;;;;0.70;0.40;;;;;;;;;;10488390;28;20584;-76
2022/09/30 15:22:41;;;;;;;0.73;0.43;;;;;;;;;;10503027;28;20430;-76
2022/09/30 15:27:48;;;;;;;1.55;0.32;;;;;;;;;;10488261;28;20040;-76
2022/09/30 15:32:59;;;;;;;1.13;0.50;;;;;;;;;;10482218;28;20044;-81
2022/09/30 15:38:16;;;;;;;3.88;1.40;;;;;;;;;;10474496;28;20049;-77
2022/09/30 15:43:34;;;;;;;1.27;0.60;;;;;;;;;;10462973;28;20032;-77
2022/09/30 15:48:43;;;;;;;0.70;0.43;;;;;;;;;;10479883;28;20655;-76
2022/09/30 15:53:48;;;;;;;0.30;0.20;;;;;;;;;;10496608;28;20440;-77
2022/09/30 15:58:57;;;;;;;0.80;0.32;;;;;;;;;;10489627;28;20426;-77
2022/09/30 16:04:04;;;;;;;0.63;0.25;;;;;;;;;;10487508;28;20074;-77
2022/09/30 16:09:19;;;;;;;0.70;0.20;;;;;;;;;;10520588;28;20089;-77
2022/09/30 16:14:26;;;;;;;0.43;0.30;;;;;;;;;;10521385;28;20039;-77
2022/09/30 16:19:31;;;;;;;0.63;0.30;;;;;;;;;;10511318;28;20508;-77
2022/09/30 16:24:47;;;;;;;0.47;0.32;;;;;;;;;;10498427;28;20068;-77
2022/09/30 16:29:52;;;;;;;0.70;0.22;;;;;;;;;;10485928;28;20052;-77
2022/09/30 16:34:56;;;;;;;1.00;0.20;;;;;;;;;;10462842;28;20044;-77
2022/09/30 16:40:09;;;;;;;0.40;0.40;;;;;;;;;;10499394;28;20037;-77
2022/09/30 16:45:15;;;;;;;0.57;0.40;;;;;;;;;;10495959;28;20063;-77
2022/09/30 16:50:31;;;;;;;0.20;0.20;;;;;;;;;;10494736;28;20603;-77
2022/09/30 16:55:36;;;;;;;;;;;;;;;;;;10517230;28;20052;-77
2022/09/30 17:00:41;;;;;;;0.50;0.30;;;;;;;;;;10500316;28;19925;-77
2022/09/30 17:05:51;;;;;;;3.80;0.70;;;;;;;;;;10491475;28;20066;-77
2022/09/30 17:10:56;;;;;;;0.98;0.73;;;;;;;;;;10517530;28;20056;-77
2022/09/30 17:16:01;;;;;;;1.60;0.77;;;;;;;;;;10517276;28;20040;-77
2022/09/30 17:21:05;;;;;;;1.95;0.65;;;;;;;;;;10473401;28;20530;-77
2022/09/30 17:26:08;;;;;;;1.80;0.73;;;;;;;;;;10496461;28;20069;-77
2022/09/30 17:31:13;;;;;;;2.97;1.20;;;;;;;;;;10494522;28;20043;-77
2022/09/30 17:36:17;;;;;;;3.40;1.45;;;;;;;;;;10511596;28;20539;-77
2022/09/30 17:46:45;;;;;;;1.55;1.00;;;;;;;;;;10485028;28;20578;-76
2022/09/30 17:51:48;;;;;;;7.55;1.35;;;;;;;;;;10518142;28;20051;-77
2022/09/30 17:56:51;;;;;;;2.97;1.40;;;;;;;;;;10505280;28;20234;-79
2022/09/30 18:01:56;;;;;;;3.22;1.83;;;;;;;;;;10493211;28;20497;-77
2022/09/30 18:06:59;;;;;;;4.50;1.60;;;;;;;;;;10465878;28;20052;-76
2022/09/30 18:12:03;;;;;;;1.63;1.15;;;;;;;;;;10498595;28;20107;-77
2022/09/30 18:17:08;;;;;;;2.20;1.35;;;;;;;;;;10481841;28;20036;-77
2022/09/30 18:22:11;;;;;;;1.95;1.17;;;;;;;;;;10516432;28;20052;-77
2022/09/30 18:27:15;;;;;;;3.88;1.70;;;;;;;;;;10490302;28;20044;-77
2022/09/30 18:32:19;;;;;;;1.75;1.25;;;;;;;;;;10491652;28;20040;-77
2022/09/30 18:37:23;;;;;;;2.40;1.38;;;;;;;;;;10484905;28;20135;-76
2022/09/30 18:42:27;;;;;;;2.13;1.30;;;;;;;;;;10491132;28;20505;-76
2022/09/30 18:47:32;;;;;;;2.92;1.67;;;;;;;;;;10512730;28;20040;-76
2022/09/30 18:52:36;;;;;;;2.20;1.55;;;;;;;;;;10495349;28;20514;-77
2022/09/30 18:57:40;;;;;;;2.05;1.27;;;;;;;;;;10482418;28;20048;-77
2022/09/30 19:02:45;;;;;;;2.17;1.20;;;;;;;;;;10489377;28;20214;-77
2022/09/30 19:07:49;;;;;;;3.40;1.50;;;;;;;;;;10506403;28;20040;-77
2022/09/30 19:12:52;;;;;;;3.00;1.40;;;;;;;;;;10488089;28;20040;-77
2022/09/30 19:17:58;;;;;;;2.40;1.33;;;;;;;;;;10494399;28;20404;-77
2022/09/30 19:23:02;;;;;;;1.83;1.17;;;;;;;;;;10483725;28;20087;-77
2022/09/30 19:28:06;;;;;;;1.60;0.90;;;;;;;;;;10514955;28;20040;-78
2022/09/30 19:33:10;;;;;;;2.72;1.10;;;;;;;;;;10472454;28;20046;-77
2022/09/30 19:38:14;;;;;;;1.00;0.77;;;;;;;;;;10463921;28;20424;-82
2022/09/30 19:43:18;;;;;;;3.28;1.00;;;;;;;;;;10454102;28;20059;-77
2022/09/30 19:48:23;;;;;;;1.77;1.10;;;;;;;;;;10473202;28;20037;-79
2022/09/30 19:53:26;;;;;;;1.70;1.02;;;;;;;;;;10453152;28;20037;-77
2022/09/30 19:58:36;;;;;;;1.90;1.20;;;;;;;;;;10482256;28;20115;-77
2022/09/30 20:03:41;;;;;;;1.67;0.93;;;;;;;;;;10433318;28;20394;-77
2022/09/30 20:08:52;;;;;;;1.17;0.87;;;;;;;;;;10471921;28;20040;-77
2022/09/30 20:19:16;;;;;;;8.15;3.45;;;;;;;;;;10469229;28;20244;-77
2022/09/30 20:24:21;;;;;;;7.77;3.93;;;;;;;;;;10472824;28;20065;-76
2022/09/30 20:29:25;;;;;;;7.70;3.80;;;;;;;;;;10471184;28;20470;-77
2022/09/30 20:34:29;;;;;;;7.35;3.88;;;;;;;;;;10429237;28;20041;-77
2022/09/30 20:39:34;;;;;;;6.07;3.67;;;;;;;;;;10486691;28;20469;-77
2022/09/30 20:44:37;;;;;;;5.50;2.92;;;;;;;;;;10493554;28;20036;-77
2022/09/30 20:49:42;;;;;;;7.18;3.00;;;;;;;;;;10493447;28;20044;-77
2022/09/30 20:54:45;;;;;;;5.07;2.90;;;;;;;;;;10514417;28;20056;-77
2022/09/30 20:59:48;;;;;;;4.28;2.20;;;;;;;;;;10497072;28;20051;-77
2022/09/30 21:04:53;;;;;;;3.97;1.88;;;;;;;;;;10497682;28;20054;-77
2022/09/30 21:09:57;;;;;;;3.63;1.75;;;;;;;;;;10507787;28;20259;-77
2022/09/30 21:15:00;;;;;;;3.90;1.63;;;;;;;;;;10517999;28;20044;-77
2022/09/30 21:20:05;;;;;;;6.45;3.22;;;;;;;;;;10490097;28;20084;-77
2022/09/30 21:25:10;;;;;;;8.73;3.23;;;;;;;;;;10516176;28;20050;-77
2022/09/30 21:30:13;;;;;;;6.28;3.10;;;;;;;;;;10499884;28;20512;-77
2022/09/30 21:35:19;;;;;;;4.82;2.45;;;;;;;;;;10507479;28;20036;-77
2022/09/30 21:40:23;;;;;;;5.72;2.20;;;;;;;;;;10490752;28;20070;-77
2022/09/30 21:45:26;;;;;;;2.90;1.63;;;;;;;;;;10507630;28;20538;-77
2022/09/30 21:50:33;;;;;;;2.08;1.27;;;;;;;;;;10517706;28;20123;-77
2022/09/30 21:55:36;;;;;;;2.90;1.60;;;;;;;;;;10491144;28;20044;-76
2022/09/30 22:00:40;;;;;;;1.95;1.27;;;;;;;;;;10505847;28;20538;-76
2022/09/30 22:05:51;;;;;;;3.78;1.58;;;;;;;;;;10507322;28;20051;-77
2022/09/30 22:10:54;;;;;;;1.38;1.08;;;;;;;;;;10516356;28;20119;-77
2022/09/30 22:16:04;;;;;;;1.65;1.00;;;;;;;;;;10499132;28;20404;-77
2022/09/30 22:21:11;;;;;;;5.85;1.08;;;;;;;;;;10484179;28;20071;-77
2022/09/30 22:26:16;;;;;;;1.90;0.80;;;;;;;;;;10512562;28;20516;-77
2022/09/30 22:31:22;;;;;;;2.90;0.70;;;;;;;;;;10461878;28;20055;-77
2022/09/30 22:41:47;;;;;;;1.83;0.80;;;;;;;;;;10471560;28;20052;-77
2022/09/30 22:46:51;;;;;;;1.70;0.70;;;;;;;;;;10463201;28;20048;-77
2022/09/30 22:51:56;;;;;;;2.55;0.80;;;;;;;;;;10455109;28;20045;-77
2022/09/30 22:57:00;;;;;;;1.67;0.70;;;;;;;;;;10474563;28;20428;-76
2022/09/30 23:02:03;;;;;;;1.70;0.70;;;;;;;;;;10461667;28;20047;-77
2022/09/30 23:07:09;;;;;;;1.45;0.73;;;;;;;;;;10461002;28;20049;-77
2022/09/30 23:12:14;;;;;;;0.85;0.52;;;;;;;;;;10480457;28;20032;-77
2022/09/30 23:17:17;;;;;;;1.77;0.70;;;;;;;;;;10465030;28;20061;-76
2022/09/30 23:22:23;;;;;;;0.80;0.55;;;;;;;;;;10458552;28;20041;-77
2022/09/30 23:27:26;;;;;;;1.00;0.60;;;;;;;;;;10463708;28;20587;-77
2022/09/30 23:32:29;;;;;;;0.93;0.50;;;;;;;;;;10455494;28;20045;-75
2022/09/30 23:37:34;;;;;;;0.95;0.50;;;;;;;;;;10464694;28;20049;-78
2022/09/30 23:42:37;;;;;;;0.50;0.40;;;;;;;;;;10489901;28;20056;-77
2022/09/30 23:47:40;;;;;;;1.92;0.50;;;;;;;;;;10522315;28;20044;-77
2022/09/30 23:52:45;;;;;;;0.55;0.50;;;;;;;;;;10511506;28;20043;-77
2022/09/30 23:57:49;;;;;;;0.65;0.40;;;;;;;;;;10505580;28;20055;-77
